createdAt,value
2018-09-02T00:00:10.829Z,18.70
2018-09-02T00:02:40.869Z,18.70
2018-09-02T00:05:10.858Z,18.70
2018-09-02T00:07:40.925Z,18.60
2018-09-02T00:10:11.019Z,18.60
2018-09-02T00:12:41.162Z,18.60
2018-09-02T00:15:11.506Z,18.60
2018-09-02T00:17:41.651Z,18.60
2018-09-02T00:20:11.908Z,18.60
2018-09-02T00:22:41.922Z,18.50
2018-09-02T00:25:12.177Z,18.50
2018-09-02T00:27:42.269Z,18.50
2018-09-02T00:30:12.387Z,18.50
2018-09-02T00:32:42.614Z,18.50
2018-09-02T00:35:12.695Z,18.40
2018-09-02T00:37:42.927Z,18.40
2018-09-02T00:40:12.921Z,18.40
2018-09-02T00:42:43.179Z,18.40
2018-09-02T00:45:13.391Z,18.40
2018-09-02T00:47:43.489Z,18.40
2018-09-02T00:50:13.743Z,18.40
2018-09-02T00:52:43.711Z,18.40
2018-09-02T00:55:13.821Z,18.40
2018-09-02T00:57:43.971Z,18.30
2018-09-02T01:00:14.226Z,18.30
2018-09-02T01:02:44.230Z,18.30
2018-09-02T01:05:14.458Z,18.30
2018-09-02T01:07:44.592Z,18.30
2018-09-02T01:10:14.505Z,18.30
2018-09-02T01:12:44.625Z,18.30
2018-09-02T01:15:14.948Z,18.20
2018-09-02T01:17:44.921Z,18.20
2018-09-02T01:20:15.204Z,18.20
2018-09-02T01:22:45.502Z,18.20
2018-09-02T01:25:15.517Z,18.20
2018-09-02T01:27:45.769Z,18.20
2018-09-02T01:30:15.841Z,18.10
2018-09-02T01:32:46.155Z,18.10
2018-09-02T01:35:33.714Z,18.10
2018-09-02T01:38:05.129Z,18.10
2018-09-02T01:40:35.971Z,18.10
2018-09-02T01:43:06.302Z,18.10
2018-09-02T01:45:36.434Z,18.10
2018-09-02T01:48:06.650Z,18.00
2018-09-02T01:50:37.379Z,18.00
2018-09-02T01:53:07.421Z,18.00
2018-09-02T01:55:37.545Z,18.00
2018-09-02T01:58:10.685Z,18.00
2018-09-02T02:00:40.821Z,18.00
2018-09-02T02:03:10.708Z,17.90
2018-09-02T02:05:40.728Z,17.90
2018-09-02T02:08:11.001Z,17.90
2018-09-02T02:10:41.094Z,17.90
2018-09-02T02:13:11.076Z,17.80
2018-09-02T02:15:41.337Z,17.80
2018-09-02T02:18:11.470Z,17.80
2018-09-02T02:20:41.419Z,17.70
2018-09-02T02:23:11.538Z,17.70
2018-09-02T02:25:41.683Z,17.70
2018-09-02T02:28:12.013Z,17.70
2018-09-02T02:30:42.133Z,17.70
2018-09-02T02:33:12.146Z,17.70
2018-09-02T02:35:42.169Z,17.70
2018-09-02T02:38:12.285Z,17.70
2018-09-02T02:40:42.386Z,17.60
2018-09-02T02:43:13.477Z,17.60
2018-09-02T02:45:43.582Z,17.60
2018-09-02T02:48:13.469Z,17.60
2018-09-02T02:50:43.492Z,17.60
2018-09-02T02:53:13.739Z,17.50
2018-09-02T02:55:43.854Z,17.50
2018-09-02T02:58:13.963Z,17.50
2018-09-02T03:00:44.111Z,17.50
2018-09-02T03:03:14.062Z,17.50
2018-09-02T03:05:44.328Z,17.50
2018-09-02T03:08:14.465Z,17.40
2018-09-02T03:10:44.506Z,17.40
2018-09-02T03:13:14.584Z,17.40
2018-09-02T03:15:44.622Z,17.40
2018-09-02T03:18:14.718Z,17.30
2018-09-02T03:20:44.843Z,17.30
2018-09-02T03:23:14.728Z,17.30
2018-09-02T03:25:44.865Z,17.30
2018-09-02T03:28:14.985Z,17.30
2018-09-02T03:30:44.966Z,17.30
2018-09-02T03:33:15.305Z,17.20
2018-09-02T03:35:45.322Z,17.20
2018-09-02T03:38:15.329Z,17.20
2018-09-02T03:40:45.439Z,17.20
2018-09-02T03:43:15.514Z,17.20
2018-09-02T03:45:45.633Z,17.10
2018-09-02T03:48:15.750Z,17.10
2018-09-02T03:50:45.522Z,17.10
2018-09-02T03:53:15.782Z,17.10
2018-09-02T03:55:45.710Z,17.00
2018-09-02T03:58:15.818Z,17.00
2018-09-02T04:03:46.370Z,17.00
2018-09-02T04:06:16.383Z,17.00
2018-09-02T04:08:46.500Z,16.90
2018-09-02T04:11:16.730Z,16.90
2018-09-02T04:13:47.221Z,16.90
2018-09-02T04:16:17.358Z,16.90
2018-09-02T04:18:47.494Z,16.90
2018-09-02T04:21:17.691Z,16.90
2018-09-02T04:23:47.937Z,16.80
2018-09-02T04:26:18.074Z,16.80
2018-09-02T04:28:48.237Z,16.80
2018-09-02T04:31:18.372Z,16.80
2018-09-02T04:33:48.471Z,16.70
2018-09-02T04:36:18.468Z,16.70
2018-09-02T04:38:48.514Z,16.70
2018-09-02T04:41:18.778Z,16.70
2018-09-02T04:43:49.000Z,16.70
2018-09-02T04:46:19.093Z,16.60
2018-09-02T04:48:49.198Z,16.60
2018-09-02T04:51:19.457Z,16.60
2018-09-02T04:53:49.438Z,16.60
2018-09-02T04:56:19.686Z,16.60
2018-09-02T04:58:49.573Z,16.60
2018-09-02T05:01:19.600Z,16.60
2018-09-02T05:03:49.628Z,16.50
2018-09-02T05:06:19.765Z,16.50
2018-09-02T05:08:50.092Z,16.50
2018-09-02T05:11:20.174Z,16.50
2018-09-02T05:13:52.117Z,16.50
2018-09-02T05:16:22.361Z,16.50
2018-09-02T05:18:52.385Z,16.40
2018-09-02T05:21:22.380Z,16.40
2018-09-02T05:23:53.035Z,16.40
2018-09-02T05:26:23.262Z,16.40
2018-09-02T05:28:53.660Z,16.40
2018-09-02T05:31:23.712Z,16.40
2018-09-02T05:36:55.056Z,16.30
2018-09-02T05:39:25.323Z,16.30
2018-09-02T05:41:55.417Z,16.30
2018-09-02T05:44:25.538Z,16.30
2018-09-02T05:46:55.298Z,16.30
2018-09-02T05:49:25.586Z,16.30
2018-09-02T05:51:55.660Z,16.30
2018-09-02T05:54:25.651Z,16.30
2018-09-02T05:56:55.911Z,16.30
2018-09-02T05:59:25.831Z,16.30
2018-09-02T06:01:55.883Z,16.30
2018-09-02T06:04:25.928Z,16.30
2018-09-02T06:06:57.460Z,16.30
2018-09-02T06:09:28.685Z,16.30
2018-09-02T06:11:58.977Z,16.20
2018-09-02T06:14:29.099Z,16.20
2018-09-02T06:17:00.265Z,16.20
2018-09-02T06:19:30.499Z,16.20
2018-09-02T06:22:00.701Z,16.20
2018-09-02T06:24:30.766Z,16.20
2018-09-02T06:27:00.917Z,16.20
2018-09-02T06:29:31.349Z,16.20
2018-09-02T06:32:01.783Z,16.20
2018-09-02T06:34:32.049Z,16.20
2018-09-02T06:37:02.339Z,16.20
2018-09-02T06:39:32.412Z,16.20
2018-09-02T06:42:02.503Z,16.20
2018-09-02T06:44:32.611Z,16.20
2018-09-02T06:47:02.797Z,16.20
2018-09-02T06:49:38.552Z,16.20
2018-09-02T06:52:08.575Z,16.30
2018-09-02T06:54:38.628Z,16.30
2018-09-02T06:57:08.669Z,16.30
2018-09-02T06:59:38.931Z,16.30
2018-09-02T07:02:08.730Z,16.30
2018-09-02T07:04:38.851Z,16.40
2018-09-02T07:07:09.079Z,16.40
2018-09-02T07:09:40.232Z,16.50
2018-09-02T07:12:10.562Z,16.50
2018-09-02T07:14:40.559Z,16.50
2018-09-02T07:17:10.814Z,16.50
2018-09-02T07:19:40.995Z,16.50
2018-09-02T07:22:11.255Z,16.60
2018-09-02T07:24:41.281Z,16.60
2018-09-02T07:27:11.503Z,16.60
2018-09-02T07:29:41.624Z,16.60
2018-09-02T07:32:11.943Z,16.60
2018-09-02T07:34:42.321Z,16.60
2018-09-02T07:37:12.769Z,16.60
2018-09-02T07:39:43.151Z,16.60
2018-09-02T07:42:13.413Z,16.60
2018-09-02T07:44:43.533Z,16.60
2018-09-02T07:47:14.024Z,16.60
2018-09-02T07:49:44.254Z,16.70
2018-09-02T07:52:14.349Z,16.70
2018-09-02T07:54:44.495Z,16.70
2018-09-02T07:57:14.610Z,16.70
2018-09-02T07:59:44.886Z,16.70
2018-09-02T08:02:15.083Z,16.70
2018-09-02T08:04:45.155Z,16.80
2018-09-02T08:07:15.478Z,16.80
2018-09-02T08:09:45.764Z,16.90
2018-09-02T08:12:16.172Z,16.90
2018-09-02T08:14:46.443Z,17.00
2018-09-02T08:17:16.539Z,17.10
2018-09-02T08:19:47.231Z,17.10
2018-09-02T08:22:17.409Z,17.20
2018-09-02T08:24:47.576Z,17.30
2018-09-02T08:27:17.815Z,17.30
2018-09-02T08:29:47.971Z,17.30
2018-09-02T08:32:18.172Z,17.40
2018-09-02T08:34:48.403Z,17.40
2018-09-02T08:37:18.565Z,17.50
2018-09-02T08:39:48.705Z,17.50
2018-09-02T08:42:18.944Z,17.60
2018-09-02T08:44:48.878Z,17.60
2018-09-02T08:47:19.056Z,17.70
2018-09-02T08:49:49.313Z,17.70
2018-09-02T08:52:19.401Z,17.70
2018-09-02T08:54:49.554Z,17.80
2018-09-02T08:57:19.760Z,17.80
2018-09-02T08:59:49.880Z,17.80
2018-09-02T09:02:19.986Z,17.80
2018-09-02T09:04:50.285Z,17.90
2018-09-02T09:07:20.421Z,17.90
2018-09-02T09:09:50.746Z,18.00
2018-09-02T09:12:21.005Z,18.00
2018-09-02T09:14:51.245Z,18.10
2018-09-02T09:17:21.353Z,18.10
2018-09-02T09:19:51.640Z,18.20
2018-09-02T09:22:21.894Z,18.20
2018-09-02T09:24:52.033Z,18.30
2018-09-02T09:27:22.241Z,18.30
2018-09-02T09:29:52.364Z,18.40
2018-09-02T09:32:22.543Z,18.40
2018-09-02T09:34:52.570Z,18.50
2018-09-02T09:37:22.743Z,18.50
2018-09-02T09:39:52.829Z,18.60
2018-09-02T09:42:22.752Z,18.60
2018-09-02T09:44:53.000Z,18.70
2018-09-02T09:47:23.168Z,18.70
2018-09-02T09:49:53.340Z,18.80
2018-09-02T09:52:23.496Z,18.80
2018-09-02T09:54:54.044Z,18.90
2018-09-02T09:57:24.043Z,19.00
2018-09-02T09:59:54.403Z,19.00
2018-09-02T10:02:24.495Z,19.10
2018-09-02T10:04:54.512Z,19.30
2018-09-02T10:07:24.901Z,19.80
2018-09-02T10:09:55.772Z,20.20
2018-09-02T10:12:27.458Z,20.30
2018-09-02T10:14:58.538Z,20.20
2018-09-02T10:17:29.889Z,20.30
2018-09-02T10:20:00.004Z,20.30
2018-09-02T10:22:30.281Z,20.20
2018-09-02T10:25:00.623Z,20.00
2018-09-02T10:27:30.884Z,19.90
2018-09-02T10:30:00.912Z,19.80
2018-09-02T10:32:31.265Z,19.80
2018-09-02T10:35:01.555Z,19.80
2018-09-02T10:37:31.639Z,19.70
2018-09-02T10:40:01.855Z,19.70
2018-09-02T10:42:32.048Z,19.70
2018-09-02T10:45:05.367Z,19.70
2018-09-02T10:47:35.795Z,19.60
2018-09-02T10:50:06.193Z,19.60
2018-09-02T10:52:36.428Z,19.60
2018-09-02T10:55:06.441Z,19.70
2018-09-02T10:57:37.555Z,19.70
2018-09-02T11:00:09.347Z,19.60
2018-09-02T11:02:40.480Z,19.50
2018-09-02T11:05:10.639Z,19.50
2018-09-02T11:07:40.710Z,19.60
2018-09-02T11:10:10.764Z,19.70
2018-09-02T11:12:40.955Z,19.80
2018-09-02T11:15:12.952Z,19.90
2018-09-02T11:17:43.920Z,19.90
2018-09-02T11:20:14.000Z,20.00
2018-09-02T11:22:44.144Z,20.00
2018-09-02T11:25:20.982Z,19.90
2018-09-02T11:27:51.118Z,19.90
2018-09-02T11:30:21.197Z,19.90
2018-09-02T11:32:51.424Z,19.90
2018-09-02T11:35:21.692Z,20.00
2018-09-02T11:37:51.806Z,20.10
2018-09-02T11:40:21.890Z,20.20
2018-09-02T11:42:52.133Z,20.20
2018-09-02T11:45:22.503Z,20.30
2018-09-02T11:47:52.697Z,20.30
2018-09-02T11:50:22.766Z,20.40
2018-09-02T11:52:53.012Z,20.40
2018-09-02T11:55:23.381Z,20.50
2018-09-02T11:57:53.625Z,20.60
2018-09-02T12:00:24.001Z,20.60
2018-09-02T12:02:54.250Z,20.70
2018-09-02T12:05:24.344Z,20.70
2018-09-02T12:07:54.465Z,20.70
2018-09-02T12:10:24.602Z,20.80
2018-09-02T12:12:54.695Z,20.90
2018-09-02T12:15:24.909Z,20.90
2018-09-02T12:17:55.228Z,21.00
2018-09-02T12:20:25.574Z,21.00
2018-09-02T12:22:55.567Z,21.10
2018-09-02T12:25:25.607Z,21.10
2018-09-02T12:27:55.808Z,21.20
2018-09-02T12:30:25.911Z,21.20
2018-09-02T12:32:56.158Z,21.20
2018-09-02T12:35:26.515Z,21.20
2018-09-02T12:37:56.901Z,21.20
2018-09-02T12:40:26.958Z,21.30
2018-09-02T12:42:57.169Z,21.40
2018-09-02T12:45:27.213Z,21.40
2018-09-02T12:47:57.429Z,21.40
2018-09-02T12:50:27.607Z,21.50
2018-09-02T12:52:57.710Z,21.50
2018-09-02T12:55:27.923Z,21.40
2018-09-02T12:57:58.175Z,21.40
2018-09-02T13:00:28.488Z,21.30
2018-09-02T13:02:58.710Z,21.30
2018-09-02T13:05:28.768Z,21.20
2018-09-02T13:07:59.078Z,21.30
2018-09-02T13:10:59.856Z,21.30
2018-09-02T13:13:29.787Z,21.30
2018-09-02T13:15:59.995Z,21.40
2018-09-02T13:18:30.248Z,21.40
2018-09-02T13:21:00.604Z,21.40
2018-09-02T13:23:30.983Z,21.50
2018-09-02T13:26:01.124Z,21.50
2018-09-02T13:28:31.227Z,21.50
2018-09-02T13:31:01.351Z,21.50
2018-09-02T13:33:31.763Z,21.60
2018-09-02T13:36:01.889Z,21.60
2018-09-02T13:38:32.069Z,21.60
2018-09-02T13:41:02.284Z,21.60
2018-09-02T13:43:32.471Z,21.60
2018-09-02T13:46:02.772Z,21.60
2018-09-02T13:48:33.154Z,21.70
2018-09-02T13:51:03.228Z,21.70
2018-09-02T13:53:33.422Z,21.70
2018-09-02T13:56:03.714Z,21.70
2018-09-02T13:58:33.770Z,21.70
2018-09-02T14:01:03.947Z,21.80
2018-09-02T14:03:34.223Z,21.80
2018-09-02T14:06:04.373Z,21.80
2018-09-02T14:08:34.547Z,21.80
2018-09-02T14:11:04.784Z,21.80
2018-09-02T14:13:35.033Z,21.80
2018-09-02T14:16:05.251Z,21.80
2018-09-02T14:18:35.461Z,21.90
2018-09-02T14:21:05.696Z,21.90
2018-09-02T14:23:35.901Z,21.90
2018-09-02T14:26:06.124Z,21.90
2018-09-02T14:28:36.478Z,21.90
2018-09-02T14:31:06.801Z,21.90
2018-09-02T14:33:37.125Z,21.90
2018-09-02T14:36:07.505Z,21.90
2018-09-02T14:38:37.733Z,21.80
2018-09-02T14:41:07.995Z,21.80
2018-09-02T14:43:38.015Z,22.00
2018-09-02T14:46:08.674Z,22.10
2018-09-02T14:48:38.682Z,22.30
2018-09-02T14:51:08.859Z,22.60
2018-09-02T14:53:38.955Z,22.60
2018-09-02T14:56:09.046Z,22.70
2018-09-02T14:58:39.228Z,22.90
2018-09-02T15:01:09.371Z,23.00
2018-09-02T15:03:39.741Z,23.10
2018-09-02T15:06:10.071Z,23.20
2018-09-02T15:08:40.270Z,23.00
2018-09-02T15:11:10.474Z,22.80
2018-09-02T15:13:40.599Z,22.70
2018-09-02T15:16:11.149Z,22.50
2018-09-02T15:18:41.546Z,22.40
2018-09-02T15:21:11.800Z,22.30
2018-09-02T15:23:42.036Z,22.30
2018-09-02T15:26:12.167Z,22.20
2018-09-02T15:28:42.294Z,22.20
2018-09-02T15:31:12.433Z,22.20
2018-09-02T15:33:42.549Z,22.10
2018-09-02T15:36:12.765Z,22.00
2018-09-02T15:38:42.971Z,22.10
2018-09-02T15:41:13.091Z,22.00
2018-09-02T15:43:43.201Z,22.00
2018-09-02T15:46:13.286Z,21.90
2018-09-02T15:48:43.474Z,21.90
2018-09-02T15:51:13.675Z,21.90
2018-09-02T15:53:43.787Z,21.90
2018-09-02T15:56:14.078Z,21.90
2018-09-02T15:58:44.425Z,21.80
2018-09-02T16:01:14.780Z,21.80
2018-09-02T16:03:44.905Z,21.80
2018-09-02T16:06:15.110Z,21.70
2018-09-02T16:08:45.207Z,21.70
2018-09-02T16:11:15.128Z,21.70
2018-09-02T16:13:45.217Z,21.70
2018-09-02T16:16:15.295Z,21.70
2018-09-02T16:18:45.697Z,21.70
2018-09-02T16:21:15.903Z,21.70
2018-09-02T16:23:46.062Z,21.60
2018-09-02T16:26:16.522Z,21.60
2018-09-02T16:28:46.526Z,21.60
2018-09-02T16:31:16.824Z,21.60
2018-09-02T16:33:46.961Z,21.60
2018-09-02T16:36:17.039Z,21.60
2018-09-02T16:38:47.237Z,21.60
2018-09-02T16:41:17.354Z,21.60
2018-09-02T16:43:47.477Z,21.60
2018-09-02T16:46:17.773Z,21.60
2018-09-02T16:48:47.867Z,21.50
2018-09-02T16:51:18.034Z,21.50
2018-09-02T16:53:48.150Z,21.60
2018-09-02T16:56:18.383Z,21.60
2018-09-02T16:58:48.714Z,21.60
2018-09-02T17:01:18.999Z,21.60
2018-09-02T17:03:52.900Z,21.50
2018-09-02T17:06:23.065Z,21.50
2018-09-02T17:08:53.295Z,21.50
2018-09-02T17:11:23.711Z,21.50
2018-09-02T17:13:53.931Z,21.50
2018-09-02T17:16:24.261Z,21.50
2018-09-02T17:18:58.261Z,21.50
2018-09-02T17:21:28.301Z,21.50
2018-09-02T17:23:58.374Z,21.50
2018-09-02T17:26:28.514Z,21.50
2018-09-02T17:28:58.623Z,21.50
2018-09-02T17:31:28.775Z,21.50
2018-09-02T17:34:00.319Z,21.40
2018-09-02T17:36:30.964Z,21.40
2018-09-02T17:39:01.107Z,21.40
2018-09-02T17:41:31.440Z,21.40
2018-09-02T17:44:01.760Z,21.40
2018-09-02T17:46:32.431Z,21.30
2018-09-02T17:49:02.467Z,21.40
2018-09-02T17:51:32.781Z,21.30
2018-09-02T17:54:03.050Z,21.30
2018-09-02T17:56:33.123Z,21.30
2018-09-02T17:59:03.341Z,21.30
2018-09-02T18:01:33.736Z,21.30
2018-09-02T18:04:03.981Z,21.30
2018-09-02T18:06:34.246Z,21.30
2018-09-02T18:09:05.295Z,21.30
2018-09-02T18:11:35.415Z,21.20
2018-09-02T18:14:06.692Z,21.20
2018-09-02T18:16:37.247Z,21.20
2018-09-02T18:19:07.555Z,21.20
2018-09-02T18:21:37.699Z,21.20
2018-09-02T18:24:07.808Z,21.20
2018-09-02T18:26:37.894Z,21.20
2018-09-02T18:29:07.856Z,21.10
2018-09-02T18:31:38.148Z,21.20
2018-09-02T18:34:08.461Z,21.10
2018-09-02T18:36:38.805Z,21.10
2018-09-02T18:39:11.026Z,21.10
2018-09-02T18:41:41.446Z,21.10
2018-09-02T18:44:11.666Z,21.10
2018-09-02T18:46:41.895Z,21.00
2018-09-02T18:49:12.322Z,21.10
2018-09-02T18:51:42.611Z,21.00
2018-09-02T18:54:12.845Z,21.00
2018-09-02T18:56:43.187Z,21.00
2018-09-02T18:59:13.666Z,21.00
2018-09-02T19:01:43.723Z,21.00
2018-09-02T19:04:13.823Z,21.00
2018-09-02T19:06:44.070Z,21.00
2018-09-02T19:09:14.192Z,21.00
2018-09-02T19:11:44.347Z,20.90
2018-09-02T19:14:14.609Z,20.90
2018-09-02T19:16:45.734Z,20.90
2018-09-02T19:19:15.810Z,20.90
2018-09-02T19:21:46.762Z,20.80
2018-09-02T19:24:16.819Z,20.90
2018-09-02T19:26:47.128Z,20.80
2018-09-02T19:29:17.439Z,20.80
2018-09-02T19:31:47.561Z,20.80
2018-09-02T19:34:17.726Z,20.80
2018-09-02T19:36:47.797Z,20.80
2018-09-02T19:39:17.870Z,20.80
2018-09-02T19:41:48.131Z,20.70
2018-09-02T19:44:18.155Z,20.80
2018-09-02T19:46:48.443Z,20.70
2018-09-02T19:49:18.633Z,20.70
2018-09-02T19:51:48.744Z,20.70
2018-09-02T19:54:18.880Z,20.70
2018-09-02T19:56:48.902Z,20.70
2018-09-02T19:59:18.990Z,20.70
2018-09-02T20:01:49.214Z,20.60
2018-09-02T20:04:19.334Z,20.70
2018-09-02T20:06:49.431Z,20.60
2018-09-02T20:09:19.691Z,20.60
2018-09-02T20:11:49.837Z,20.60
2018-09-02T20:14:20.201Z,20.60
2018-09-02T20:16:50.178Z,20.60
2018-09-02T20:19:20.279Z,20.60
2018-09-02T20:21:50.474Z,20.50
2018-09-02T20:24:20.865Z,20.60
2018-09-02T20:26:51.250Z,20.50
2018-09-02T20:29:21.471Z,20.50
2018-09-02T20:31:51.815Z,20.50
2018-09-02T20:34:22.164Z,20.50
2018-09-02T20:36:52.440Z,20.40
2018-09-02T20:39:22.786Z,20.40
2018-09-02T20:41:52.940Z,20.40
2018-09-02T20:44:23.204Z,20.40
2018-09-02T20:46:53.344Z,20.40
2018-09-02T20:49:23.694Z,20.40
2018-09-02T20:51:53.814Z,20.40
2018-09-02T20:54:23.991Z,20.40
2018-09-02T20:56:53.900Z,20.30
2018-09-02T20:59:24.147Z,20.40
2018-09-02T21:01:54.368Z,20.30
2018-09-02T21:04:24.660Z,20.30
2018-09-02T21:06:54.776Z,20.30
2018-09-02T21:09:25.128Z,20.30
2018-09-02T21:11:55.322Z,20.30
2018-09-02T21:14:25.377Z,20.20
2018-09-02T21:16:55.614Z,20.20
2018-09-02T21:19:25.811Z,20.30
2018-09-02T21:21:55.914Z,20.20
2018-09-02T21:24:26.017Z,20.20
2018-09-02T21:26:56.117Z,20.20
2018-09-02T21:29:26.279Z,20.20
2018-09-02T21:31:56.248Z,20.20
2018-09-02T21:34:26.401Z,20.20
2018-09-02T21:36:57.016Z,20.10
2018-09-02T21:39:27.245Z,20.10
2018-09-02T21:41:57.473Z,20.10
2018-09-02T21:44:27.673Z,20.10
2018-09-02T21:46:57.850Z,20.10
2018-09-02T21:49:27.905Z,20.10
2018-09-02T21:51:57.934Z,20.10
2018-09-02T21:54:28.165Z,20.10
2018-09-02T21:56:58.934Z,20.10
2018-09-02T21:59:29.133Z,20.00
2018-09-02T22:01:59.261Z,20.00
2018-09-02T22:04:29.372Z,20.00
2018-09-02T22:06:59.444Z,20.00
2018-09-02T22:09:29.606Z,20.10
2018-09-02T22:12:00.096Z,20.00
2018-09-02T22:14:30.376Z,20.00
2018-09-02T22:17:00.503Z,20.00
2018-09-02T22:19:30.685Z,20.00
2018-09-02T22:22:00.835Z,20.00
2018-09-02T22:24:31.037Z,20.00
2018-09-02T22:27:01.378Z,20.00
2018-09-02T22:29:31.674Z,20.00
2018-09-02T22:32:01.670Z,20.00
2018-09-02T22:34:31.926Z,19.90
2018-09-02T22:37:02.231Z,19.90
2018-09-02T22:39:32.447Z,19.90
2018-09-02T22:42:02.692Z,19.90
2018-09-02T22:44:33.031Z,19.90
2018-09-02T22:47:03.250Z,19.90
2018-09-02T22:49:33.238Z,19.90
2018-09-02T22:52:03.338Z,19.80
2018-09-02T22:54:33.582Z,19.80
2018-09-02T22:57:03.589Z,19.80
2018-09-02T22:59:33.662Z,19.80
2018-09-02T23:02:03.657Z,19.80
2018-09-02T23:04:33.986Z,19.80
2018-09-02T23:07:04.171Z,19.80
2018-09-02T23:09:34.412Z,19.80
2018-09-02T23:12:04.740Z,19.70
2018-09-02T23:14:34.910Z,19.70
2018-09-02T23:17:04.955Z,19.70
2018-09-02T23:19:35.066Z,19.70
2018-09-02T23:22:05.061Z,19.70
2018-09-02T23:24:35.178Z,19.70
2018-09-02T23:27:05.431Z,19.70
2018-09-02T23:29:35.543Z,19.70
2018-09-02T23:32:05.711Z,19.70
2018-09-02T23:34:36.019Z,19.70
2018-09-02T23:37:06.309Z,19.70
2018-09-02T23:39:36.444Z,19.70
2018-09-02T23:42:06.758Z,19.70
2018-09-02T23:44:36.679Z,19.70
2018-09-02T23:47:06.862Z,19.60
2018-09-02T23:49:37.106Z,19.60
2018-09-02T23:52:07.100Z,19.60
2018-09-02T23:54:37.349Z,19.60
2018-09-02T23:57:07.470Z,19.60
2018-09-02T23:59:37.625Z,19.60
